sensor_id;sensor_type;location;lat;lon;timestamp;pressure;altitude;pressure_sealevel;temperature;humidity
58919;BME280;44704;50.122;19.932;2022-09-09T00:00:49;98007.33;;;17.50;92.89
58919;BME280;44704;50.122;19.932;2022-09-09T00:03:45;98004.27;;;17.47;92.83
58919;BME280;44704;50.122;19.932;2022-09-09T00:06:21;98011.27;;;17.46;92.95
58919;BME280;44704;50.122;19.932;2022-09-09T00:09:18;98012.94;;;17.46;93.04
58919;BME280;44704;50.122;19.932;2022-09-09T00:11:52;98017.42;;;17.44;92.98
58919;BME280;44704;50.122;19.932;2022-09-09T00:14:29;98016.57;;;17.42;92.98
58919;BME280;44704;50.122;19.932;2022-09-09T00:17:08;98012.47;;;17.41;93.16
58919;BME280;44704;50.122;19.932;2022-09-09T00:19:39;98013.98;;;17.40;93.15
58919;BME280;44704;50.122;19.932;2022-09-09T00:22:14;98014.36;;;17.37;93.11
58919;BME280;44704;50.122;19.932;2022-09-09T00:24:49;98010.23;;;17.34;93.09
58919;BME280;44704;50.122;19.932;2022-09-09T00:29:53;98008.39;;;17.28;93.16
58919;BME280;44704;50.122;19.932;2022-09-09T00:32:21;98012.77;;;17.25;93.15
58919;BME280;44704;50.122;19.932;2022-09-09T00:34:52;98016.31;;;17.24;93.08
58919;BME280;44704;50.122;19.932;2022-09-09T00:37:22;98020.61;;;17.21;93.18
58919;BME280;44704;50.122;19.932;2022-09-09T00:39:55;98019.23;;;17.20;93.31
58919;BME280;44704;50.122;19.932;2022-09-09T00:42:26;98019.08;;;17.20;93.41
58919;BME280;44704;50.122;19.932;2022-09-09T00:45:19;98020.63;;;17.20;93.46
58919;BME280;44704;50.122;19.932;2022-09-09T00:47:52;98024.84;;;17.18;93.55
58919;BME280;44704;50.122;19.932;2022-09-09T00:53:35;98028.79;;;17.18;93.49
58919;BME280;44704;50.122;19.932;2022-09-09T00:56:12;98034.20;;;17.18;93.65
58919;BME280;44704;50.122;19.932;2022-09-09T00:59:01;98035.02;;;17.17;93.38
58919;BME280;44704;50.122;19.932;2022-09-09T01:01:33;98037.16;;;17.15;93.34
58919;BME280;44704;50.122;19.932;2022-09-09T01:04:06;98038.95;;;17.12;93.30
58919;BME280;44704;50.122;19.932;2022-09-09T01:06:38;98037.34;;;17.09;93.39
58919;BME280;44704;50.122;19.932;2022-09-09T01:12:11;98041.66;;;17.01;93.72
58919;BME280;44704;50.122;19.932;2022-09-09T01:14:55;98043.96;;;16.97;93.80
58919;BME280;44704;50.122;19.932;2022-09-09T01:17:25;98044.23;;;16.94;93.87
58919;BME280;44704;50.122;19.932;2022-09-09T01:20:24;98048.47;;;16.90;94.13
58919;BME280;44704;50.122;19.932;2022-09-09T01:23:15;98054.30;;;16.86;94.19
58919;BME280;44704;50.122;19.932;2022-09-09T01:28:43;98058.91;;;16.80;94.33
58919;BME280;44704;50.122;19.932;2022-09-09T01:31:18;98057.32;;;16.76;94.38
58919;BME280;44704;50.122;19.932;2022-09-09T01:33:47;98060.32;;;16.74;94.57
58919;BME280;44704;50.122;19.932;2022-09-09T01:36:37;98062.83;;;16.70;94.45
58919;BME280;44704;50.122;19.932;2022-09-09T01:39:12;98061.06;;;16.66;94.48
58919;BME280;44704;50.122;19.932;2022-09-09T01:41:40;98066.66;;;16.63;94.58
58919;BME280;44704;50.122;19.932;2022-09-09T01:44:11;98069.29;;;16.60;94.65
58919;BME280;44704;50.122;19.932;2022-09-09T01:46:40;98075.59;;;16.57;94.82
58919;BME280;44704;50.122;19.932;2022-09-09T01:49:13;98076.83;;;16.55;94.80
58919;BME280;44704;50.122;19.932;2022-09-09T01:51:42;98079.06;;;16.52;94.94
58919;BME280;44704;50.122;19.932;2022-09-09T01:54:13;98081.39;;;16.50;95.20
58919;BME280;44704;50.122;19.932;2022-09-09T02:02:17;98090.93;;;16.47;95.48
58919;BME280;44704;50.122;19.932;2022-09-09T02:04:54;98091.98;;;16.46;95.70
58919;BME280;44704;50.122;19.932;2022-09-09T02:07:42;98094.70;;;16.45;95.58
58919;BME280;44704;50.122;19.932;2022-09-09T02:10:36;98093.36;;;16.42;95.64
58919;BME280;44704;50.122;19.932;2022-09-09T02:13:15;98098.17;;;16.39;95.41
58919;BME280;44704;50.122;19.932;2022-09-09T02:18:25;98105.33;;;16.33;95.25
58919;BME280;44704;50.122;19.932;2022-09-09T02:20:58;98105.38;;;16.29;95.58
58919;BME280;44704;50.122;19.932;2022-09-09T02:23:26;98107.32;;;16.27;95.31
58919;BME280;44704;50.122;19.932;2022-09-09T02:25:57;98112.34;;;16.24;95.26
58919;BME280;44704;50.122;19.932;2022-09-09T02:28:31;98112.81;;;16.22;95.30
58919;BME280;44704;50.122;19.932;2022-09-09T02:30:59;98110.92;;;16.19;95.29
58919;BME280;44704;50.122;19.932;2022-09-09T02:33:38;98112.33;;;16.16;95.15
58919;BME280;44704;50.122;19.932;2022-09-09T02:36:08;98114.83;;;16.13;95.43
58919;BME280;44704;50.122;19.932;2022-09-09T02:38:40;98122.98;;;16.10;95.47
58919;BME280;44704;50.122;19.932;2022-09-09T02:41:12;98123.79;;;16.06;95.24
58919;BME280;44704;50.122;19.932;2022-09-09T02:43:39;98126.16;;;16.04;95.47
58919;BME280;44704;50.122;19.932;2022-09-09T02:48:59;98127.59;;;16.00;95.43
58919;BME280;44704;50.122;19.932;2022-09-09T02:51:53;98133.38;;;15.97;95.57
58919;BME280;44704;50.122;19.932;2022-09-09T02:54:27;98132.91;;;15.95;95.28
58919;BME280;44704;50.122;19.932;2022-09-09T02:57:10;98137.21;;;15.91;95.15
58919;BME280;44704;50.122;19.932;2022-09-09T02:59:39;98134.77;;;15.88;95.08
58919;BME280;44704;50.122;19.932;2022-09-09T03:02:07;98137.23;;;15.84;94.82
58919;BME280;44704;50.122;19.932;2022-09-09T03:04:34;98141.56;;;15.78;94.97
58919;BME280;44704;50.122;19.932;2022-09-09T03:07:01;98140.03;;;15.72;94.77
58919;BME280;44704;50.122;19.932;2022-09-09T03:09:30;98150.34;;;15.66;94.91
58919;BME280;44704;50.122;19.932;2022-09-09T03:11:57;98148.96;;;15.60;94.89
58919;BME280;44704;50.122;19.932;2022-09-09T03:14:24;98150.91;;;15.56;95.13
58919;BME280;44704;50.122;19.932;2022-09-09T03:16:54;98152.85;;;15.53;95.53
58919;BME280;44704;50.122;19.932;2022-09-09T03:19:21;98149.36;;;15.51;95.82
58919;BME280;44704;50.122;19.932;2022-09-09T03:21:49;98149.86;;;15.50;96.03
58919;BME280;44704;50.122;19.932;2022-09-09T03:24:16;98149.20;;;15.48;96.22
58919;BME280;44704;50.122;19.932;2022-09-09T03:26:43;98148.16;;;15.49;96.24
58919;BME280;44704;50.122;19.932;2022-09-09T03:29:16;98143.77;;;15.50;96.33
58919;BME280;44704;50.122;19.932;2022-09-09T03:31:44;98144.24;;;15.51;96.60
58919;BME280;44704;50.122;19.932;2022-09-09T03:34:12;98148.35;;;15.54;96.48
58919;BME280;44704;50.122;19.932;2022-09-09T03:36:40;98149.59;;;15.56;96.55
58919;BME280;44704;50.122;19.932;2022-09-09T03:39:08;98149.73;;;15.58;96.30
58919;BME280;44704;50.122;19.932;2022-09-09T03:41:35;98147.16;;;15.59;96.36
58919;BME280;44704;50.122;19.932;2022-09-09T03:44:04;98147.04;;;15.60;96.16
58919;BME280;44704;50.122;19.932;2022-09-09T03:46:35;98150.29;;;15.59;96.17
58919;BME280;44704;50.122;19.932;2022-09-09T03:49:02;98154.49;;;15.61;96.10
58919;BME280;44704;50.122;19.932;2022-09-09T03:51:30;98158.34;;;15.62;96.04
58919;BME280;44704;50.122;19.932;2022-09-09T03:53:59;98163.06;;;15.62;95.95
58919;BME280;44704;50.122;19.932;2022-09-09T03:56:28;98169.82;;;15.63;96.12
58919;BME280;44704;50.122;19.932;2022-09-09T03:58:55;98172.77;;;15.64;96.00
58919;BME280;44704;50.122;19.932;2022-09-09T04:01:22;98175.62;;;15.64;95.86
58919;BME280;44704;50.122;19.932;2022-09-09T04:03:49;98175.17;;;15.63;95.96
58919;BME280;44704;50.122;19.932;2022-09-09T04:06:18;98171.73;;;15.62;96.02
58919;BME280;44704;50.122;19.932;2022-09-09T04:08:46;98173.54;;;15.62;96.14
58919;BME280;44704;50.122;19.932;2022-09-09T04:11:16;98175.23;;;15.62;96.20
58919;BME280;44704;50.122;19.932;2022-09-09T04:13:44;98179.75;;;15.61;95.75
58919;BME280;44704;50.122;19.932;2022-09-09T04:16:13;98184.27;;;15.61;95.94
58919;BME280;44704;50.122;19.932;2022-09-09T04:18:41;98182.17;;;15.61;96.16
58919;BME280;44704;50.122;19.932;2022-09-09T04:21:09;98181.35;;;15.61;95.96
58919;BME280;44704;50.122;19.932;2022-09-09T04:23:37;98178.11;;;15.61;96.16
58919;BME280;44704;50.122;19.932;2022-09-09T04:26:06;98179.68;;;15.63;96.55
58919;BME280;44704;50.122;19.932;2022-09-09T04:28:35;98177.82;;;15.64;96.31
58919;BME280;44704;50.122;19.932;2022-09-09T04:31:07;98178.96;;;15.64;96.28
58919;BME280;44704;50.122;19.932;2022-09-09T04:33:35;98172.33;;;15.64;96.18
58919;BME280;44704;50.122;19.932;2022-09-09T04:36:02;98174.02;;;15.65;96.12
58919;BME280;44704;50.122;19.932;2022-09-09T04:38:30;98171.43;;;15.66;96.40
58919;BME280;44704;50.122;19.932;2022-09-09T04:40:57;98173.02;;;15.67;96.34
58919;BME280;44704;50.122;19.932;2022-09-09T04:43:23;98173.33;;;15.69;96.27
58919;BME280;44704;50.122;19.932;2022-09-09T04:45:53;98171.17;;;15.72;96.34
58919;BME280;44704;50.122;19.932;2022-09-09T04:48:22;98172.65;;;15.74;96.32
58919;BME280;44704;50.122;19.932;2022-09-09T04:50:56;98173.58;;;15.77;96.72
58919;BME280;44704;50.122;19.932;2022-09-09T04:53:24;98171.34;;;15.81;96.64
58919;BME280;44704;50.122;19.932;2022-09-09T04:56:11;98177.41;;;15.85;96.62
58919;BME280;44704;50.122;19.932;2022-09-09T04:58:42;98175.09;;;15.88;96.45
58919;BME280;44704;50.122;19.932;2022-09-09T05:01:12;98174.40;;;15.90;96.52
58919;BME280;44704;50.122;19.932;2022-09-09T05:03:40;98179.15;;;15.93;96.76
58919;BME280;44704;50.122;19.932;2022-09-09T05:06:14;98178.20;;;15.99;96.78
58919;BME280;44704;50.122;19.932;2022-09-09T05:08:44;98180.46;;;16.03;96.76
58919;BME280;44704;50.122;19.932;2022-09-09T05:11:26;98183.77;;;16.07;96.72
58919;BME280;44704;50.122;19.932;2022-09-09T05:13:55;98183.23;;;16.11;96.68
58919;BME280;44704;50.122;19.932;2022-09-09T05:16:30;98189.19;;;16.16;96.60
58919;BME280;44704;50.122;19.932;2022-09-09T05:18:57;98186.97;;;16.19;96.32
58919;BME280;44704;50.122;19.932;2022-09-09T05:21:27;98190.23;;;16.22;96.19
58919;BME280;44704;50.122;19.932;2022-09-09T05:23:55;98191.55;;;16.22;96.22
58919;BME280;44704;50.122;19.932;2022-09-09T05:26:22;98190.51;;;16.23;95.96
58919;BME280;44704;50.122;19.932;2022-09-09T05:28:52;98191.77;;;16.23;95.82
58919;BME280;44704;50.122;19.932;2022-09-09T05:31:21;98193.70;;;16.22;95.70
58919;BME280;44704;50.122;19.932;2022-09-09T05:33:50;98197.38;;;16.22;95.91
58919;BME280;44704;50.122;19.932;2022-09-09T05:36:20;98201.26;;;16.18;95.26
58919;BME280;44704;50.122;19.932;2022-09-09T05:38:50;98204.05;;;16.13;95.19
58919;BME280;44704;50.122;19.932;2022-09-09T05:41:18;98204.36;;;16.09;95.13
58919;BME280;44704;50.122;19.932;2022-09-09T05:43:46;98202.84;;;16.07;94.91
58919;BME280;44704;50.122;19.932;2022-09-09T05:46:18;98203.44;;;16.08;95.25
58919;BME280;44704;50.122;19.932;2022-09-09T05:48:47;98206.26;;;16.13;95.38
58919;BME280;44704;50.122;19.932;2022-09-09T05:51:17;98203.91;;;16.16;95.14
58919;BME280;44704;50.122;19.932;2022-09-09T05:53:45;98201.14;;;16.20;95.17
58919;BME280;44704;50.122;19.932;2022-09-09T05:56:18;98206.11;;;16.24;94.84
58919;BME280;44704;50.122;19.932;2022-09-09T05:58:46;98205.52;;;16.27;94.94
58919;BME280;44704;50.122;19.932;2022-09-09T06:03:43;98213.17;;;16.38;94.65
58919;BME280;44704;50.122;19.932;2022-09-09T06:06:15;98213.69;;;16.43;94.63
58919;BME280;44704;50.122;19.932;2022-09-09T06:08:44;98217.06;;;16.45;94.18
58919;BME280;44704;50.122;19.932;2022-09-09T06:11:23;98214.84;;;16.48;94.21
58919;BME280;44704;50.122;19.932;2022-09-09T06:13:51;98219.40;;;16.53;93.98
58919;BME280;44704;50.122;19.932;2022-09-09T06:16:23;98223.08;;;16.59;93.95
58919;BME280;44704;50.122;19.932;2022-09-09T06:18:52;98226.09;;;16.66;94.17
58919;BME280;44704;50.122;19.932;2022-09-09T06:21:21;98232.73;;;16.73;93.76
58919;BME280;44704;50.122;19.932;2022-09-09T06:23:49;98231.46;;;16.79;93.40
58919;BME280;44704;50.122;19.932;2022-09-09T06:26:23;98230.77;;;16.84;93.28
58919;BME280;44704;50.122;19.932;2022-09-09T06:28:54;98236.48;;;16.90;92.75
58919;BME280;44704;50.122;19.932;2022-09-09T06:31:23;98237.65;;;16.96;92.63
58919;BME280;44704;50.122;19.932;2022-09-09T06:33:52;98237.61;;;16.99;92.15
58919;BME280;44704;50.122;19.932;2022-09-09T06:36:22;98238.43;;;17.03;91.82
58919;BME280;44704;50.122;19.932;2022-09-09T06:38:50;98235.63;;;17.08;91.66
58919;BME280;44704;50.122;19.932;2022-09-09T06:41:20;98236.14;;;17.11;90.81
58919;BME280;44704;50.122;19.932;2022-09-09T06:43:48;98235.91;;;17.13;90.54
58919;BME280;44704;50.122;19.932;2022-09-09T06:46:23;98240.17;;;17.19;90.73
58919;BME280;44704;50.122;19.932;2022-09-09T06:48:55;98243.00;;;17.26;90.36
58919;BME280;44704;50.122;19.932;2022-09-09T06:51:28;98238.92;;;17.32;89.53
58919;BME280;44704;50.122;19.932;2022-09-09T06:53:58;98235.77;;;17.37;89.62
58919;BME280;44704;50.122;19.932;2022-09-09T06:56:30;98237.55;;;17.44;89.21
58919;BME280;44704;50.122;19.932;2022-09-09T06:58:59;98236.02;;;17.52;89.26
58919;BME280;44704;50.122;19.932;2022-09-09T07:01:33;98232.36;;;17.60;88.03
58919;BME280;44704;50.122;19.932;2022-09-09T07:04:02;98235.84;;;17.67;88.01
58919;BME280;44704;50.122;19.932;2022-09-09T07:06:35;98237.28;;;17.75;88.12
58919;BME280;44704;50.122;19.932;2022-09-09T07:09:05;98236.80;;;17.79;87.40
58919;BME280;44704;50.122;19.932;2022-09-09T07:11:37;98233.11;;;17.84;87.40
58919;BME280;44704;50.122;19.932;2022-09-09T07:14:05;98235.30;;;17.82;86.25
58919;BME280;44704;50.122;19.932;2022-09-09T07:16:32;98237.36;;;17.78;86.37
58919;BME280;44704;50.122;19.932;2022-09-09T07:19:00;98234.95;;;17.77;86.28
58919;BME280;44704;50.122;19.932;2022-09-09T07:21:31;98233.61;;;17.74;85.92
58919;BME280;44704;50.122;19.932;2022-09-09T07:23:59;98236.15;;;17.73;85.92
58919;BME280;44704;50.122;19.932;2022-09-09T07:26:29;98232.87;;;17.75;86.27
58919;BME280;44704;50.122;19.932;2022-09-09T07:28:57;98231.45;;;17.75;85.75
58919;BME280;44704;50.122;19.932;2022-09-09T07:31:27;98232.20;;;17.72;85.53
58919;BME280;44704;50.122;19.932;2022-09-09T07:33:55;98229.25;;;17.71;86.05
58919;BME280;44704;50.122;19.932;2022-09-09T07:36:23;98228.45;;;17.74;85.66
58919;BME280;44704;50.122;19.932;2022-09-09T07:39:01;98223.50;;;17.79;85.82
58919;BME280;44704;50.122;19.932;2022-09-09T07:44:26;98221.85;;;17.96;85.30
58919;BME280;44704;50.122;19.932;2022-09-09T07:47:05;98220.92;;;18.03;84.21
58919;BME280;44704;50.122;19.932;2022-09-09T07:49:36;98222.41;;;18.09;84.35
58919;BME280;44704;50.122;19.932;2022-09-09T07:52:04;98222.57;;;18.17;83.89
58919;BME280;44704;50.122;19.932;2022-09-09T07:54:32;98227.20;;;18.27;84.09
58919;BME280;44704;50.122;19.932;2022-09-09T07:57:00;98226.14;;;18.38;83.89
58919;BME280;44704;50.122;19.932;2022-09-09T07:59:28;98225.01;;;18.50;83.11
58919;BME280;44704;50.122;19.932;2022-09-09T08:01:56;98222.17;;;18.59;82.69
58919;BME280;44704;50.122;19.932;2022-09-09T08:04:26;98224.30;;;18.67;82.36
58919;BME280;44704;50.122;19.932;2022-09-09T08:06:56;98228.70;;;18.80;82.37
58919;BME280;44704;50.122;19.932;2022-09-09T08:09:25;98226.92;;;18.93;81.72
58919;BME280;44704;50.122;19.932;2022-09-09T08:11:58;98227.12;;;19.06;81.40
58919;BME280;44704;50.122;19.932;2022-09-09T08:14:25;98230.25;;;19.21;81.05
58919;BME280;44704;50.122;19.932;2022-09-09T08:16:53;98228.91;;;19.38;80.55
58919;BME280;44704;50.122;19.932;2022-09-09T08:19:22;98228.94;;;19.57;79.17
58919;BME280;44704;50.122;19.932;2022-09-09T08:21:50;98232.17;;;19.77;78.85
58919;BME280;44704;50.122;19.932;2022-09-09T08:24:17;98232.68;;;19.93;77.74
58919;BME280;44704;50.122;19.932;2022-09-09T08:26:48;98239.56;;;20.08;76.66
58919;BME280;44704;50.122;19.932;2022-09-09T08:29:17;98240.81;;;20.19;75.88
58919;BME280;44704;50.122;19.932;2022-09-09T08:31:51;98237.66;;;20.32;75.64
58919;BME280;44704;50.122;19.932;2022-09-09T08:34:21;98241.91;;;20.49;74.53
58919;BME280;44704;50.122;19.932;2022-09-09T08:36:50;98239.66;;;20.58;74.51
58919;BME280;44704;50.122;19.932;2022-09-09T08:39:21;98241.07;;;20.67;74.34
58919;BME280;44704;50.122;19.932;2022-09-09T08:49:59;98243.75;;;20.70;71.69
58919;BME280;44704;50.122;19.932;2022-09-09T08:52:37;98243.55;;;20.82;71.01
58919;BME280;44704;50.122;19.932;2022-09-09T08:55:28;98242.36;;;20.89;70.74
58919;BME280;44704;50.122;19.932;2022-09-09T08:58:13;98239.30;;;20.98;70.31
58919;BME280;44704;50.122;19.932;2022-09-09T09:09:11;98246.08;;;21.23;68.15
58919;BME280;44704;50.122;19.932;2022-09-09T09:11:52;98249.67;;;21.31;68.07
58919;BME280;44704;50.122;19.932;2022-09-09T09:14:24;98250.30;;;21.30;67.37
58919;BME280;44704;50.122;19.932;2022-09-09T09:16:58;98252.75;;;21.42;67.89
58919;BME280;44704;50.122;19.932;2022-09-09T09:19:28;98252.73;;;21.60;67.22
58919;BME280;44704;50.122;19.932;2022-09-09T09:22:20;98248.97;;;21.77;66.72
58919;BME280;44704;50.122;19.932;2022-09-09T09:27:43;98246.84;;;22.14;64.39
58919;BME280;44704;50.122;19.932;2022-09-09T09:30:19;98247.66;;;22.26;63.99
58919;BME280;44704;50.122;19.932;2022-09-09T09:35:25;98243.02;;;22.66;63.41
58919;BME280;44704;50.122;19.932;2022-09-09T09:37:52;98245.20;;;22.80;62.73
58919;BME280;44704;50.122;19.932;2022-09-09T09:40:21;98246.27;;;22.92;62.49
58919;BME280;44704;50.122;19.932;2022-09-09T09:42:54;98244.65;;;23.05;62.00
58919;BME280;44704;50.122;19.932;2022-09-09T09:45:33;98240.86;;;23.01;60.30
58919;BME280;44704;50.122;19.932;2022-09-09T09:48:04;98241.37;;;22.90;60.59
58919;BME280;44704;50.122;19.932;2022-09-09T09:50:33;98242.71;;;22.84;60.81
58919;BME280;44704;50.122;19.932;2022-09-09T09:53:03;98240.75;;;22.92;60.56
58919;BME280;44704;50.122;19.932;2022-09-09T09:55:34;98232.75;;;23.01;60.43
58919;BME280;44704;50.122;19.932;2022-09-09T09:58:06;98231.14;;;23.16;60.89
58919;BME280;44704;50.122;19.932;2022-09-09T10:00:48;98233.39;;;23.35;59.66
58919;BME280;44704;50.122;19.932;2022-09-09T10:03:26;98232.98;;;23.46;58.75
58919;BME280;44704;50.122;19.932;2022-09-09T10:05:54;98231.98;;;23.51;57.52
58919;BME280;44704;50.122;19.932;2022-09-09T10:08:26;98230.40;;;23.51;57.59
58919;BME280;44704;50.122;19.932;2022-09-09T10:19:09;98220.46;;;24.09;56.22
58919;BME280;44704;50.122;19.932;2022-09-09T10:33:09;98221.33;;;24.65;54.29
58919;BME280;44704;50.122;19.932;2022-09-09T10:35:42;98226.75;;;24.77;53.72
58919;BME280;44704;50.122;19.932;2022-09-09T10:38:29;98229.54;;;24.87;52.59
58919;BME280;44704;50.122;19.932;2022-09-09T10:41:07;98228.14;;;24.99;52.81
58919;BME280;44704;50.122;19.932;2022-09-09T10:49:48;98234.71;;;25.10;49.88
58919;BME280;44704;50.122;19.932;2022-09-09T10:52:36;98230.59;;;25.08;51.45
58919;BME280;44704;50.122;19.932;2022-09-09T10:57:48;98231.49;;;25.35;50.43
58919;BME280;44704;50.122;19.932;2022-09-09T11:00:21;98235.44;;;25.51;49.44
58919;BME280;44704;50.122;19.932;2022-09-09T11:02:55;98231.13;;;25.56;47.66
58919;BME280;44704;50.122;19.932;2022-09-09T11:05:41;98228.10;;;25.59;47.64
58919;BME280;44704;50.122;19.932;2022-09-09T11:08:18;98228.11;;;25.69;47.74
58919;BME280;44704;50.122;19.932;2022-09-09T11:10:53;98233.54;;;25.75;47.60
58919;BME280;44704;50.122;19.932;2022-09-09T11:16:24;98233.80;;;25.60;47.43
58919;BME280;44704;50.122;19.932;2022-09-09T11:19:00;98232.73;;;25.44;47.08
58919;BME280;44704;50.122;19.932;2022-09-09T11:21:33;98224.57;;;25.35;47.25
58919;BME280;44704;50.122;19.932;2022-09-09T11:24:08;98228.84;;;25.27;47.71
58919;BME280;44704;50.122;19.932;2022-09-09T11:26:47;98225.95;;;25.34;47.76
58919;BME280;44704;50.122;19.932;2022-09-09T11:29:59;98233.27;;;25.53;48.71
58919;BME280;44704;50.122;19.932;2022-09-09T11:32:45;98236.10;;;25.65;50.06
58919;BME280;44704;50.122;19.932;2022-09-09T11:35:30;98230.06;;;25.71;49.00
58919;BME280;44704;50.122;19.932;2022-09-09T11:40:54;98225.27;;;25.65;48.08
58919;BME280;44704;50.122;19.932;2022-09-09T11:46:21;98227.06;;;25.59;45.84
58919;BME280;44704;50.122;19.932;2022-09-09T11:49:04;98225.27;;;25.65;45.51
58919;BME280;44704;50.122;19.932;2022-09-09T11:51:33;98222.44;;;25.69;45.70
58919;BME280;44704;50.122;19.932;2022-09-09T11:54:01;98221.28;;;25.83;45.22
58919;BME280;44704;50.122;19.932;2022-09-09T11:59:19;98220.36;;;26.07;44.97
58919;BME280;44704;50.122;19.932;2022-09-09T12:06:58;98222.54;;;26.37;44.70
58919;BME280;44704;50.122;19.932;2022-09-09T12:09:43;98225.56;;;26.57;45.02
58919;BME280;44704;50.122;19.932;2022-09-09T12:14:54;98232.20;;;26.40;43.30
58919;BME280;44704;50.122;19.932;2022-09-09T12:17:23;98230.66;;;26.24;42.50
58919;BME280;44704;50.122;19.932;2022-09-09T12:22:54;98226.24;;;26.18;41.76
58919;BME280;44704;50.122;19.932;2022-09-09T12:26:01;98221.59;;;25.98;42.06
58919;BME280;44704;50.122;19.932;2022-09-09T12:29:28;98221.50;;;25.85;42.16
58919;BME280;44704;50.122;19.932;2022-09-09T12:35:02;98225.29;;;25.87;43.49
58919;BME280;44704;50.122;19.932;2022-09-09T12:39:56;98222.67;;;26.00;44.06
58919;BME280;44704;50.122;19.932;2022-09-09T12:42:23;98225.77;;;26.16;44.31
58919;BME280;44704;50.122;19.932;2022-09-09T12:44:58;98222.30;;;26.25;44.02
58919;BME280;44704;50.122;19.932;2022-09-09T12:48:01;98219.52;;;26.18;44.33
58919;BME280;44704;50.122;19.932;2022-09-09T12:50:33;98219.87;;;25.99;43.89
58919;BME280;44704;50.122;19.932;2022-09-09T12:53:08;98218.56;;;25.88;44.24
58919;BME280;44704;50.122;19.932;2022-09-09T12:55:38;98218.25;;;25.81;43.77
58919;BME280;44704;50.122;19.932;2022-09-09T12:58:06;98223.53;;;25.68;42.88
58919;BME280;44704;50.122;19.932;2022-09-09T13:00:34;98228.82;;;25.56;43.37
58919;BME280;44704;50.122;19.932;2022-09-09T13:03:17;98229.73;;;25.52;43.52
58919;BME280;44704;50.122;19.932;2022-09-09T13:05:44;98226.71;;;25.50;43.09
58919;BME280;44704;50.122;19.932;2022-09-09T13:08:14;98228.69;;;25.50;43.60
58919;BME280;44704;50.122;19.932;2022-09-09T13:10:47;98224.05;;;25.54;43.96
58919;BME280;44704;50.122;19.932;2022-09-09T13:13:19;98216.35;;;25.57;43.99
58919;BME280;44704;50.122;19.932;2022-09-09T13:15:59;98213.52;;;25.56;44.75
58919;BME280;44704;50.122;19.932;2022-09-09T13:18:35;98216.80;;;25.51;44.54
58919;BME280;44704;50.122;19.932;2022-09-09T13:21:04;98208.42;;;25.38;44.06
58919;BME280;44704;50.122;19.932;2022-09-09T13:23:33;98206.34;;;25.26;44.59
58919;BME280;44704;50.122;19.932;2022-09-09T13:26:20;98208.21;;;25.20;44.73
58919;BME280;44704;50.122;19.932;2022-09-09T13:28:51;98205.42;;;25.13;44.52
58919;BME280;44704;50.122;19.932;2022-09-09T13:31:28;98202.84;;;25.09;44.59
58919;BME280;44704;50.122;19.932;2022-09-09T13:33:55;98202.29;;;25.14;44.52
58919;BME280;44704;50.122;19.932;2022-09-09T13:36:34;98198.70;;;25.19;45.93
58919;BME280;44704;50.122;19.932;2022-09-09T13:39:03;98201.35;;;25.23;45.98
58919;BME280;44704;50.122;19.932;2022-09-09T13:41:35;98199.92;;;25.20;45.92
58919;BME280;44704;50.122;19.932;2022-09-09T13:44:03;98198.29;;;25.19;45.41
58919;BME280;44704;50.122;19.932;2022-09-09T13:46:38;98194.69;;;25.16;45.22
58919;BME280;44704;50.122;19.932;2022-09-09T13:54:09;98195.27;;;24.88;46.66
58919;BME280;44704;50.122;19.932;2022-09-09T13:56:38;98193.85;;;24.74;45.93
58919;BME280;44704;50.122;19.932;2022-09-09T13:59:10;98195.65;;;24.61;45.43
58919;BME280;44704;50.122;19.932;2022-09-09T14:01:38;98194.39;;;24.44;45.80
58919;BME280;44704;50.122;19.932;2022-09-09T14:04:05;98195.45;;;24.36;46.66
58919;BME280;44704;50.122;19.932;2022-09-09T14:06:34;98195.98;;;24.36;47.19
58919;BME280;44704;50.122;19.932;2022-09-09T14:09:06;98193.31;;;24.32;45.70
58919;BME280;44704;50.122;19.932;2022-09-09T14:11:33;98192.59;;;24.21;46.82
58919;BME280;44704;50.122;19.932;2022-09-09T14:14:00;98193.90;;;24.19;47.53
58919;BME280;44704;50.122;19.932;2022-09-09T14:16:28;98189.27;;;24.19;47.45
58919;BME280;44704;50.122;19.932;2022-09-09T14:18:55;98191.75;;;24.13;47.06
58919;BME280;44704;50.122;19.932;2022-09-09T14:21:24;98194.98;;;24.05;47.63
58919;BME280;44704;50.122;19.932;2022-09-09T14:23:52;98196.45;;;24.06;47.63
58919;BME280;44704;50.122;19.932;2022-09-09T14:26:22;98193.79;;;24.08;47.33
58919;BME280;44704;50.122;19.932;2022-09-09T14:28:50;98192.27;;;24.07;47.54
58919;BME280;44704;50.122;19.932;2022-09-09T14:31:18;98189.19;;;24.03;47.33
58919;BME280;44704;50.122;19.932;2022-09-09T14:33:45;98186.86;;;23.90;48.12
58919;BME280;44704;50.122;19.932;2022-09-09T14:36:12;98179.13;;;23.79;48.02
58919;BME280;44704;50.122;19.932;2022-09-09T14:38:39;98180.92;;;23.68;47.87
58919;BME280;44704;50.122;19.932;2022-09-09T14:41:07;98179.73;;;23.54;48.64
58919;BME280;44704;50.122;19.932;2022-09-09T14:43:40;98171.92;;;23.43;48.98
58919;BME280;44704;50.122;19.932;2022-09-09T14:46:08;98168.34;;;23.35;49.03
58919;BME280;44704;50.122;19.932;2022-09-09T14:48:36;98169.54;;;23.28;49.36
58919;BME280;44704;50.122;19.932;2022-09-09T14:51:15;98168.35;;;23.23;49.26
58919;BME280;44704;50.122;19.932;2022-09-09T14:53:44;98164.91;;;23.20;50.12
58919;BME280;44704;50.122;19.932;2022-09-09T14:56:13;98167.92;;;23.18;50.90
58919;BME280;44704;50.122;19.932;2022-09-09T14:58:41;98165.95;;;23.14;51.05
58919;BME280;44704;50.122;19.932;2022-09-09T15:01:10;98163.44;;;23.13;50.83
58919;BME280;44704;50.122;19.932;2022-09-09T15:03:38;98164.67;;;23.20;50.87
58919;BME280;44704;50.122;19.932;2022-09-09T15:06:10;98160.64;;;23.28;51.49
58919;BME280;44704;50.122;19.932;2022-09-09T15:08:43;98164.92;;;23.37;50.74